Details From EGGP - Liverpool John Lennon
To EPKK - Balice
Flight Number -
Tags Generated
Created
Modified
Stats Distance 863 nm / 1,599 km
Max Altitude 0 ft / 0 m
Waypoints 5
Social Downloads 5
Likes 0
Share VATSIM

Download

Looking for another format? Having issues loading an existing format? Contact us
Advertisement - Login to hide

Notes

Generated

Route

EGGP HDR72 MILGU R1855 EPKK

ID Type Via Altitude Latitude Longitude Leg Dist Tot Dist Heading (true) Name
O EGGP APT - 0 ft / 0 m 53.33288˚ -2.86602˚ - 0 nm - -
HDR72 FIX - 0 ft / 0 m 52.78937˚ 4.72699˚ 275 nm 275 nm 94° / 100° -
MILGU FIX - 0 ft / 0 m 51.57200˚ 13.02967˚ 314 nm 590 nm 100° / 107° -
R1855 FIX - 0 ft / 0 m 50.07979˚ 19.79965˚ 271 nm 861 nm 107° / 112° -
O EPKK APT - 0 ft / 0 m 50.07540˚ 19.76809˚ 1 nm 863 nm 258° / 258° -

Altitude Profile

Advertisement - Login to hide

Weather


0- 5 10 15 20 25 30 35+ Temperature / ° C

Clouds and Precipitation
Forecast for 2018-05-22 06:00 UTC. Updated 3 hours ago

Ground ~20,000 ft ~40,000 ft Winds

EGGP

Details ICAO EGGP (LPL)
Name Liverpool
Region United Kingdom
Timezone Europe/London (UTC+1.0)
Stats Elevation 80 ft / 24 m (AMSL)
Location 53.333632° -2.849769°
Runways 1
Magnetic Variation 1.606° W

METAR

EGGP 220820Z VRB04KT 9999 FEW021 SCT028 16/11 Q1020

Decode

TAF

TAF TAF EGGP 220501Z 2206/2306 04007KT 9999 FEW015 PROB40 TEMPO 2219/2306 7000

Decode

Departure Runways

ID Width Length Bearing (true) Bearing (mag) Surface Threshold Offset Overrun Length
09 151 ft / 46 m 7,466 ft / 2,276 m 85.59° 87.20° Asphalt 180 ft / 55 m 0 ft / 0 m
27 151 ft / 46 m 7,466 ft / 2,276 m 265.61° 267.22° Asphalt 0 ft / 0 m 0 ft / 0 m

EPKK

Details ICAO EPKK (KRK)
Name BALICE
Region Poland
Timezone Europe/Warsaw (UTC+2.0)
Stats Elevation 791 ft / 241 m (AMSL)
Location 50.077821° 19.785503°
Runways 1
Magnetic Variation 5.255° E

METAR

EPKK 220800Z 07005KT 050V110 CAVOK 19/11 Q1016

Decode

TAF

TAF EPKK 220830Z 2209/2309 07005KT CAVOK PROB30 TEMPO 2212/2220 VRB17G30KT 4000 TSRA BKN045CB PROB30 TEMPO 2302/2305 2000 BR

Decode

Destination Runways

ID Width Length Bearing (true) Bearing (mag) Surface Threshold Offset Overrun Length
07 197 ft / 60 m 8,343 ft / 2,543 m 77.75° 72.49° Concrete 0 ft / 0 m 0 ft / 0 m
25 197 ft / 60 m 8,343 ft / 2,543 m 257.77° 252.51° Concrete 784 ft / 239 m 0 ft / 0 m

Approach Navaids

Runway Type Ident Frequency Range Bearing (true) Bearing (mag) Slope Elevation
25 Localiser KRW 110.30 MHz 18 nm / 33 km 257.73° 252.48° - 791 ft / 241 m (AMSL)
25 Glidescope KRW 110.30 MHz 10 nm / 19 km 257.76° 252.50° 3.00° 791 ft / 241 m (AMSL)
25 DME KRW 110.30 MHz 18 nm / 33 km - - - 827 ft / 252 m (AMSL)

Popular Alternatives